Terminal Aerodrome Forecast
Issued by NWS

Home | Current Version | Previous Version | Text Only | Print | Product List | Glossary On
Versions: 1 2 3 4 5 6 7 8 9 10 11 12 13 14 15 16 17 18 19 20 21 22 23 24
000
FTUS46 KMFR 231140
TAFOTH
TAF
KOTH 231140Z 2312/2412 VRB03KT 5SM -DZ SCT007 OVC015
     FM231600 VRB03KT P6SM BKN015 OVC025
     FM231900 34010G18KT P6SM SCT015 OVC030
     FM232100 36015G20KT P6SM OVC035
     FM240500 35008KT P6SM BKN015 OVC035=

USA.gov is the U.S. government's official web portal to all federal, state and local government web resources and services.